LVRJA SADM-SADM

Flight info

Callsign LVRJA
Flight time 0h 5m
Altitude 1500
Route SADM LCL
Aircraft C150/L-SC/SC

Departure

Time 2026-04-19 22:19
Airport Morón Airport (SADM)

Arrival

Time 2026-04-19 22:24
Airport Morón Airport (SADM)
Time Latitude Longitude Altitude Speed Heading
2026-04-19 22:01 -34.66377 -58.64170 87 ft 0 kts 285°
2026-04-19 22:13 -34.66373 -58.64175 88 ft 0 kts 339°
2026-04-19 22:13 -34.66365 -58.64157 90 ft 5 kts 112°
2026-04-19 22:13 -34.66409 -58.64155 87 ft 11 kts 183°
2026-04-19 22:14 -34.66505 -58.64174 87 ft 15 kts 191°
2026-04-19 22:14 -34.66603 -58.64182 88 ft 13 kts 188°
2026-04-19 22:14 -34.66685 -58.64223 88 ft 12 kts 229°
2026-04-19 22:14 -34.66720 -58.64316 88 ft 12 kts 256°
2026-04-19 22:15 -34.66754 -58.64336 88 ft 7 kts 158°
2026-04-19 22:15 -34.66785 -58.64323 89 ft 0 kts 163°
2026-04-19 22:15 -34.66799 -58.64308 89 ft 8 kts 112°
2026-04-19 22:15 -34.66802 -58.64208 88 ft 13 kts 77°
2026-04-19 22:16 -34.66789 -58.64153 89 ft 0 kts 75°
2026-04-19 22:17 -34.66778 -58.64105 87 ft 15 kts 84°
2026-04-19 22:17 -34.66826 -58.64045 87 ft 12 kts 188°
2026-04-19 22:17 -34.67053 -58.64115 90 ft 55 kts 193°
2026-04-19 22:17 -34.67488 -58.64243 210 ft 64 kts 194°
2026-04-19 22:18 -34.67932 -58.64402 341 ft 68 kts 189°
2026-04-19 22:18 -34.68409 -58.64470 479 ft 69 kts 186°
2026-04-19 22:18 -34.68893 -58.64533 605 ft 70 kts 184°
2026-04-19 22:18 -34.69400 -58.64567 689 ft 73 kts 179°
2026-04-19 22:19 -34.69816 -58.64753 872 ft 62 kts 204°
2026-04-19 22:19 -34.70224 -58.64945 972 ft 67 kts 198°
2026-04-19 22:19 -34.70553 -58.65312 1070 ft 73 kts 263°
2026-04-19 22:19 -34.70533 -58.65979 1092 ft 84 kts 271°
2026-04-19 22:20 -34.70301 -58.66529 1230 ft 76 kts 352°
2026-04-19 22:20 -34.69723 -58.66534 1201 ft 87 kts
2026-04-19 22:20 -34.69114 -58.66489 1151 ft 88 kts
2026-04-19 22:20 -34.68524 -58.66425 1158 ft 84 kts
2026-04-19 22:21 -34.67961 -58.66348 1217 ft 76 kts
2026-04-19 22:21 -34.67457 -58.66346 1264 ft 72 kts
2026-04-19 22:21 -34.66968 -58.66352 1311 ft 68 kts 359°
2026-04-19 22:21 -34.66505 -58.66335 1256 ft 62 kts 10°
2026-04-19 22:22 -34.66106 -58.66179 1134 ft 58 kts 27°
2026-04-19 22:22 -34.65739 -58.65990 1015 ft 56 kts 32°
2026-04-19 22:22 -34.65385 -58.65807 916 ft 53 kts 41°
2026-04-19 22:22 -34.65414 -58.65365 781 ft 61 kts 106°
2026-04-19 22:23 -34.65504 -58.64860 620 ft 59 kts 113°
2026-04-19 22:23 -34.65624 -58.64374 519 ft 62 kts 109°
2026-04-19 22:23 -34.65844 -58.63932 362 ft 60 kts 169°
2026-04-19 22:23 -34.66254 -58.63871 211 ft 57 kts 193°
2026-04-19 22:24 -34.66627 -58.63987 114 ft 52 kts 195°
2026-04-19 22:24 -34.66950 -58.64080 90 ft 47 kts 193°
2026-04-19 22:24 -34.67372 -58.64208 177 ft 67 kts 195°
2026-04-19 22:24 -34.67806 -58.64346 383 ft 66 kts 195°
2026-04-19 22:25 -34.68256 -58.64504 566 ft 67 kts 195°
2026-04-19 22:25 -34.68675 -58.64661 770 ft 60 kts 195°
2026-04-19 22:25 -34.69109 -58.64824 891 ft 68 kts 192°
2026-04-19 22:25 -34.69571 -58.65026 1048 ft 68 kts 207°
2026-04-19 22:26 -34.69695 -58.65547 1193 ft 77 kts 279°
2026-04-19 22:26 -34.69489 -58.66177 1279 ft 85 kts 319°
2026-04-19 22:26 -34.68926 -58.66472 1319 ft 90 kts 358°
2026-04-19 22:26 -34.68279 -58.66464 1327 ft 96 kts
2026-04-19 22:27 -34.67611 -58.66407 1293 ft 97 kts
2026-04-19 22:27 -34.66943 -58.66314 1263 ft 97 kts
2026-04-19 22:27 -34.66298 -58.66183 1227 ft 96 kts 24°
2026-04-19 22:27 -34.65698 -58.65835 1098 ft 86 kts 29°
2026-04-19 22:28 -34.65200 -58.65547 967 ft 76 kts 35°
2026-04-19 22:28 -34.64926 -58.65100 798 ft 66 kts 91°
2026-04-19 22:28 -34.64960 -58.64548 670 ft 68 kts 104°
2026-04-19 22:28 -34.65079 -58.64015 604 ft 64 kts 112°
2026-04-19 22:29 -34.65283 -58.63566 521 ft 61 kts 175°
2026-04-19 22:29 -34.65749 -58.63722 365 ft 73 kts 190°
2026-04-19 22:29 -34.66238 -58.63873 213 ft 70 kts 194°
2026-04-19 22:29 -34.66677 -58.64006 114 ft 58 kts 193°
2026-04-19 22:30 -34.67029 -58.64109 91 ft 48 kts 191°
2026-04-19 22:30 -34.67411 -58.64213 173 ft 61 kts 189°
2026-04-19 22:30 -34.67852 -58.64327 316 ft 68 kts 191°
2026-04-19 22:30 -34.68343 -58.64422 488 ft 70 kts 187°
2026-04-19 22:31 -34.68848 -58.64531 612 ft 73 kts 191°
2026-04-19 22:31 -34.69332 -58.64661 726 ft 72 kts 191°
2026-04-19 22:31 -34.69707 -58.64941 876 ft 68 kts 255°
2026-04-19 22:31 -34.69632 -58.65539 981 ft 72 kts 272°
2026-04-19 22:32 -34.69511 -58.66115 1140 ft 68 kts 312°
2026-04-19 22:32 -34.69013 -58.66155 1210 ft 78 kts 11°
2026-04-19 22:32 -34.68467 -58.66064 1322 ft 81 kts 11°
2026-04-19 22:32 -34.67904 -58.65948 1394 ft 81 kts 10°
2026-04-19 22:33 -34.67398 -58.65811 1392 ft 71 kts 20°
2026-04-19 22:33 -34.66934 -58.65577 1300 ft 73 kts 28°
2026-04-19 22:33 -34.66459 -58.65401 1235 ft 74 kts 12°
2026-04-19 22:33 -34.65992 -58.65290 1156 ft 61 kts 14°
2026-04-19 22:34 -34.65587 -58.65169 1057 ft 58 kts 21°
2026-04-19 22:34 -34.65281 -58.64878 899 ft 56 kts 56°
2026-04-19 22:34 -34.65187 -58.64417 740 ft 57 kts 97°
2026-04-19 22:34 -34.65238 -58.63939 623 ft 57 kts 109°
2026-04-19 22:35 -34.65478 -58.63639 470 ft 56 kts 188°
2026-04-19 22:35 -34.65876 -58.63768 328 ft 63 kts 191°
2026-04-19 22:35 -34.66290 -58.63890 205 ft 59 kts 195°
2026-04-19 22:35 -34.66671 -58.64006 110 ft 51 kts 193°
2026-04-19 22:36 -34.66981 -58.64090 88 ft 49 kts 191°
2026-04-19 22:36 -34.67373 -58.64223 234 ft 58 kts 201°
2026-04-19 22:36 -34.67747 -58.64424 393 ft 63 kts 204°
2026-04-19 22:36 -34.68148 -58.64550 584 ft 60 kts 196°
2026-04-19 22:37 -34.68549 -58.64696 682 ft 59 kts 192°
2026-04-19 22:37 -34.68946 -58.64895 787 ft 59 kts 198°
2026-04-19 22:37 -34.69341 -58.64990 877 ft 60 kts 182°
2026-04-19 22:37 -34.69633 -58.65236 967 ft 63 kts 280°
2026-04-19 22:38 -34.69504 -58.65794 1050 ft 67 kts 277°
2026-04-19 22:38 -34.69126 -58.65986 1090 ft 77 kts 18°
2026-04-19 22:38 -34.68552 -58.65794 1061 ft 88 kts 18°
2026-04-19 22:38 -34.68030 -58.65604 1143 ft 71 kts 12°
2026-04-19 22:39 -34.67540 -58.65514 1127 ft 73 kts
2026-04-19 22:39 -34.67051 -58.65413 1130 ft 71 kts 12°
2026-04-19 22:39 -34.66554 -58.65338 1119 ft 71 kts
2026-04-19 22:39 -34.66083 -58.65297 1068 ft 62 kts 13°
2026-04-19 22:40 -34.65686 -58.65184 975 ft 57 kts 20°
2026-04-19 22:40 -34.65514 -58.64851 810 ft 50 kts 106°
2026-04-19 22:40 -34.65627 -58.64413 645 ft 56 kts 112°
2026-04-19 22:40 -34.65733 -58.63965 516 ft 55 kts 108°
2026-04-19 22:41 -34.66004 -58.63828 393 ft 52 kts 197°
2026-04-19 22:41 -34.66412 -58.63924 160 ft 65 kts 194°
2026-04-19 22:41 -34.66809 -58.64040 90 ft 51 kts 193°
2026-04-19 22:41 -34.67153 -58.64138 103 ft 62 kts 192°
2026-04-19 22:42 -34.67537 -58.64268 309 ft 59 kts 198°
2026-04-19 22:42 -34.67937 -58.64430 481 ft 61 kts 194°
2026-04-19 22:42 -34.68345 -58.64539 604 ft 60 kts 191°
2026-04-19 22:42 -34.68726 -58.64601 724 ft 52 kts 185°
2026-04-19 22:43 -34.69144 -58.64519 737 ft 65 kts 168°
2026-04-19 22:43 -34.69523 -58.64756 772 ft 76 kts 225°
2026-04-19 22:43 -34.69701 -58.65215 807 ft 58 kts 270°
2026-04-19 22:43 -34.69624 -58.65504 484 ft 42 kts 143°
2026-04-19 22:44 -34.69991 -58.65465 507 ft 66 kts 244°
2026-04-19 22:44 -34.70080 -58.65976 702 ft 67 kts 268°
2026-04-19 22:44 -34.70012 -58.66535 908 ft 64 kts 281°
2026-04-19 22:44 -34.69681 -58.66846 1024 ft 73 kts
2026-04-19 22:45 -34.69136 -58.66851 1091 ft 83 kts
2026-04-19 22:45 -34.68547 -58.66764 1128 ft 85 kts 14°
2026-04-19 22:45 -34.67951 -58.66575 1102 ft 93 kts 18°
2026-04-19 22:45 -34.67335 -58.66343 1077 ft 94 kts 19°
2026-04-19 22:46 -34.66707 -58.66088 1034 ft 97 kts 19°
2026-04-19 22:46 -34.66102 -58.65860 1006 ft 78 kts 23°
2026-04-19 22:46 -34.65748 -58.65460 844 ft 71 kts 83°
2026-04-19 22:46 -34.65795 -58.64884 667 ft 64 kts 108°
2026-04-19 22:47 -34.65937 -58.64370 493 ft 64 kts 115°
2026-04-19 22:47 -34.66198 -58.63930 294 ft 65 kts 157°
2026-04-19 22:47 -34.66657 -58.64001 103 ft 62 kts 190°
2026-04-19 22:47 -34.67021 -58.64108 88 ft 45 kts 191°
2026-04-19 22:48 -34.67150 -58.64119 88 ft 10 kts 117°
2026-04-19 22:48 -34.67170 -58.64026 90 ft 13 kts 104°
2026-04-19 22:48 -34.67188 -58.63900 90 ft 12 kts 72°
2026-04-19 22:48 -34.67136 -58.63887 92 ft 16 kts 15°
2026-04-19 22:49 -34.67006 -58.63848 92 ft 20 kts 14°
2026-04-19 22:49 -34.66867 -58.63807 90 ft 22 kts 12°
2026-04-19 22:49 -34.66705 -58.63763 88 ft 24 kts 13°
2026-04-19 22:49 -34.66550 -58.63717 88 ft 22 kts
2026-04-19 22:50 -34.66466 -58.63758 87 ft 16 kts 305°
2026-04-19 22:50 -34.66389 -58.63871 88 ft 17 kts 304°
2026-04-19 22:50 -34.66365 -58.63937 88 ft 19 kts 290°
2026-04-19 22:50 -34.66331 -58.64097 87 ft 19 kts 283°
2026-04-19 22:51 -34.66304 -58.64153 90 ft 3 kts 292°
2026-04-19 22:51 -34.66313 -58.64164 89 ft 0 kts 180°